Time;durP1;ratioP1;P1;durP2;ratioP2;P2;SDS_P1;SDS_P2;PMS_P1;PMS_P2;Temp;Humidity;BMP_temperature;BMP_pressure;BME280_temperature;BME280_humidity;BME280_pressure;Samples;Min_cycle;Max_cycle;Signal;HPM_P1;HPM_P2
2023/11/30 00:00:36;;;;;;;;;;;;;;;-1.12;100.00;97033.27;110432;1242;71242;-68
2023/11/30 00:03:27;;;;;;;;;;;;;;;-1.12;100.00;97034.29;110304;1242;69181;-68
2023/11/30 00:05:57;;;;;;;;;;;;;;;-1.14;100.00;97040.52;110306;1243;68652;-68
2023/11/30 00:08:28;;;;;;;;;;;;;;;-1.14;100.00;97046.19;110388;1241;59678;-68
2023/11/30 00:10:59;;;;;;;;;;;;;;;-1.13;100.00;97044.10;110332;1241;59640;-68
2023/11/30 00:13:30;;;;;;;;;;;;;;;-1.15;100.00;97038.66;110345;1241;71215;-68
2023/11/30 00:16:01;;;;;;;;;;;;;;;-1.14;100.00;97041.54;110328;1241;68655;-68
2023/11/30 00:18:32;;;;;;;;;;;;;;;-1.15;100.00;97051.85;110303;1241;69227;-68
2023/11/30 00:21:05;;;;;;;;;;;;;;;-1.13;100.00;97056.23;110307;1242;59743;-69
2023/11/30 00:23:37;;;;;;;;;;;;;;;-1.12;100.00;97060.65;110499;1242;60092;-68
2023/11/30 00:26:08;;;;;;;;;;;;;;;-1.12;100.00;97066.11;110335;1241;71713;-68
2023/11/30 00:28:40;;;;;;;;;;;;;;;-1.12;100.00;97069.86;110234;1241;69038;-68
2023/11/30 00:31:10;;;;;;;;;;;;;;;-1.12;100.00;97074.83;110151;1245;69296;-68
2023/11/30 00:33:41;;;;;;;;;;;;;;;-1.10;100.00;97077.54;110461;1243;59752;-68
2023/11/30 00:36:11;;;;;;;;;;;;;;;-1.10;100.00;97074.09;110440;1249;59678;-68
2023/11/30 00:38:41;;;;;;;;;;;;;;;-1.11;100.00;97078.91;110429;1241;70678;-68
2023/11/30 00:41:15;;;;;;;;;;;;;;;-1.10;100.00;97078.71;110389;1244;69076;-68
2023/11/30 00:43:46;;;;;;;;;;;;;;;-1.09;100.00;97082.95;110438;1242;69111;-68
2023/11/30 00:46:19;;;;;;;;;;;;;;;-1.08;100.00;97082.40;110480;1244;59753;-68
2023/11/30 00:48:50;;;;;;;;;;;;;;;-1.08;100.00;97084.12;110440;1242;59743;-68
2023/11/30 00:51:21;;;;;;;;;;;;;;;-1.09;100.00;97081.41;110465;1242;71855;-68
2023/11/30 00:53:52;;;;;;;;;;;;;;;-1.11;100.00;97083.17;110331;1242;68526;-68
2023/11/30 00:56:24;;;;;;;;;;;;;;;-1.10;100.00;97082.14;110345;1245;69375;-68
2023/11/30 00:58:56;;;;;;;;;;;;;;;-1.12;100.00;97078.24;110369;1242;59675;-67
2023/11/30 01:01:25;;;;;;;;;;;;;;;-1.10;100.00;97076.31;110310;1241;59667;-68
2023/11/30 01:03:56;;;;;;;;;;;;;;;-1.11;100.00;97071.90;110431;1240;71614;-68
2023/11/30 01:06:26;;;;;;;;;;;;;;;-1.13;100.00;97073.34;110165;1244;68443;-68
2023/11/30 01:08:55;;;;;;;;;;;;;;;-1.12;100.00;97078.94;110327;1242;69280;-69
2023/11/30 01:11:26;;;;;;;;;;;;;;;-1.13;100.00;97077.95;110513;1241;59724;-69
2023/11/30 01:13:56;;;;;;;;;;;;;;;-1.12;100.00;97071.75;110368;1242;59729;-68
2023/11/30 01:16:26;;;;;;;;;;;;;;;-1.12;100.00;97074.33;110432;1241;70672;-68
2023/11/30 01:18:55;;;;;;;;;;;;;;;-1.14;100.00;97072.52;110421;1243;70371;-68
2023/11/30 01:21:26;;;;;;;;;;;;;;;-1.14;100.00;97078.35;110294;1241;69536;-69
2023/11/30 01:23:56;;;;;;;;;;;;;;;-1.17;100.00;97082.16;110469;1239;59677;-69
2023/11/30 01:26:26;;;;;;;;;;;;;;;-1.19;100.00;97082.41;110524;1241;59789;-68
2023/11/30 01:28:57;;;;;;;;;;;;;;;-1.21;100.00;97078.88;110586;1242;71484;-68
2023/11/30 01:31:27;;;;;;;;;;;;;;;-1.21;100.00;97075.11;110566;1241;69213;-69
2023/11/30 01:33:59;;;;;;;;;;;;;;;-1.19;100.00;97071.30;110280;1244;69297;-68
2023/11/30 01:36:29;;;;;;;;;;;;;;;-1.18;100.00;97078.78;110212;1240;59798;-69
2023/11/30 01:39:00;;;;;;;;;;;;;;;-1.19;100.00;97074.72;110227;1244;59730;-69
2023/11/30 01:41:30;;;;;;;;;;;;;;;-1.18;100.00;97079.66;110499;1241;71396;-69
2023/11/30 01:44:00;;;;;;;;;;;;;;;-1.19;100.00;97074.73;110343;1242;68502;-69
2023/11/30 01:46:32;;;;;;;;;;;;;;;-1.18;100.00;97074.34;110432;1242;68555;-68
2023/11/30 01:49:04;;;;;;;;;;;;;;;-1.18;100.00;97075.72;110455;1242;59699;-70
2023/11/30 01:51:35;;;;;;;;;;;;;;;-1.17;100.00;97076.19;110394;1241;59695;-68
2023/11/30 01:54:07;;;;;;;;;;;;;;;-1.17;100.00;97080.13;110496;1243;71208;-68
2023/11/30 01:56:39;;;;;;;;;;;;;;;-1.18;100.00;97083.22;110428;1241;69314;-68
2023/11/30 01:59:12;;;;;;;;;;;;;;;-1.17;100.00;97091.05;110162;1244;68848;-68
2023/11/30 02:01:43;;;;;;;;;;;;;;;-1.14;100.00;97092.35;110189;1241;60012;-68
2023/11/30 02:04:15;;;;;;;;;;;;;;;-1.13;100.00;97100.34;110177;1245;59724;-69
2023/11/30 02:06:46;;;;;;;;;;;;;;;-1.11;100.00;97101.83;110182;1241;70752;-68
2023/11/30 02:09:19;;;;;;;;;;;;;;;-1.11;100.00;97102.00;110151;1242;68368;-68
2023/11/30 02:11:51;;;;;;;;;;;;;;;-1.12;100.00;97106.30;110133;1241;69136;-68
2023/11/30 02:14:21;;;;;;;;;;;;;;;-1.14;100.00;97108.94;110153;1242;59746;-68
2023/11/30 02:16:54;;;;;;;;;;;;;;;-1.17;100.00;97112.44;110177;1242;59734;-68
2023/11/30 02:19:26;;;;;;;;;;;;;;;-1.19;100.00;97116.98;110198;1242;71433;-68
2023/11/30 02:21:57;;;;;;;;;;;;;;;-1.19;100.00;97108.08;110186;1242;68374;-68
2023/11/30 02:24:30;;;;;;;;;;;;;;;-1.21;100.00;97105.56;110140;1242;69103;-68
2023/11/30 02:27:05;;;;;;;;;;;;;;;-1.24;100.00;97108.05;110142;1241;59675;-68
2023/11/30 02:29:37;;;;;;;;;;;;;;;-1.24;100.00;97107.89;110132;1251;59748;-68
2023/11/30 02:32:14;;;;;;;;;;;;;;;-1.25;100.00;97102.63;110164;1242;70444;-68
2023/11/30 02:34:52;;;;;;;;;;;;;;;-1.27;100.00;97103.70;110129;1242;69549;-68
2023/11/30 02:37:23;;;;;;;;;;;;;;;-1.29;100.00;97102.56;110140;1241;69289;-68
2023/11/30 02:39:55;;;;;;;;;;;;;;;-1.32;100.00;97096.84;110126;1242;59693;-68
2023/11/30 02:42:26;;;;;;;;;;;;;;;-1.33;100.00;97096.87;110206;1243;59667;-68
2023/11/30 02:44:57;;;;;;;;;;;;;;;-1.34;100.00;97102.36;110204;1241;71419;-68
2023/11/30 02:47:28;;;;;;;;;;;;;;;-1.35;100.00;97099.66;110173;1241;68609;-68
2023/11/30 02:50:02;;;;;;;;;;;;;;;-1.35;100.00;97100.36;110181;1242;69223;-68
2023/11/30 02:52:34;;;;;;;;;;;;;;;-1.37;100.00;97102.28;110186;1242;59742;-68
2023/11/30 02:55:06;;;;;;;;;;;;;;;-1.36;100.00;97102.92;110183;1242;59712;-68
2023/11/30 02:57:38;;;;;;;;;;;;;;;-1.37;100.00;97107.25;110162;1243;70734;-68
2023/11/30 03:00:09;;;;;;;;;;;;;;;-1.39;100.00;97108.84;110226;1242;69244;-70
2023/11/30 03:02:45;;;;;;;;;;;;;;;-1.40;100.00;97115.02;110421;1241;68450;-68
2023/11/30 03:05:19;;;;;;;;;;;;;;;-1.40;100.00;97117.27;110361;1242;59706;-69
2023/11/30 03:07:51;;;;;;;;;;;;;;;-1.44;100.00;97116.19;110212;1241;59675;-69
2023/11/30 03:10:26;;;;;;;;;;;;;;;-1.48;100.00;97117.65;110460;1241;70680;-69
2023/11/30 03:13:02;;;;;;;;;;;;;;;-1.45;100.00;97109.88;110203;1240;67610;-69
2023/11/30 03:15:43;;;;;;;;;;;;;;;-1.46;100.00;97111.77;110167;1241;68865;-69
2023/11/30 03:18:17;;;;;;;;;;;;;;;-1.46;100.00;97111.63;110333;1241;59703;-68
2023/11/30 03:20:47;;;;;;;;;;;;;;;-1.55;100.00;97111.20;110138;1243;59659;-69
2023/11/30 03:23:18;;;;;;;;;;;;;;;-1.61;100.00;97109.14;110314;1241;71458;-69
2023/11/30 03:25:48;;;;;;;;;;;;;;;-1.66;100.00;97113.90;110395;1241;68599;-69
2023/11/30 03:28:20;;;;;;;;;;;;;;;-1.72;100.00;97119.06;110235;1241;68487;-69
2023/11/30 03:30:53;;;;;;;;;;;;;;;-1.79;100.00;97119.75;110321;1241;59644;-69
2023/11/30 03:33:25;;;;;;;;;;;;;;;-1.83;100.00;97115.75;110311;1242;59672;-69
2023/11/30 03:35:56;;;;;;;;;;;;;;;-1.89;100.00;97117.96;110435;1242;70456;-69
2023/11/30 03:38:29;;;;;;;;;;;;;;;-1.96;100.00;97117.68;110442;1241;68529;-69
2023/11/30 03:41:02;;;;;;;;;;;;;;;-2.03;100.00;97127.27;110266;1244;68608;-69
2023/11/30 03:43:33;;;;;;;;;;;;;;;-2.12;100.00;97128.01;110376;1242;59754;-69
2023/11/30 03:46:03;;;;;;;;;;;;;;;-2.22;100.00;97122.81;110299;1241;59692;-68
2023/11/30 03:48:35;;;;;;;;;;;;;;;-2.32;100.00;97120.54;110321;1241;70460;-68
2023/11/30 03:51:06;;;;;;;;;;;;;;;-2.42;100.00;97127.42;110274;1241;68750;-69
2023/11/30 03:53:37;;;;;;;;;;;;;;;-2.49;100.00;97125.92;110131;1245;69120;-69
2023/11/30 03:56:07;;;;;;;;;;;;;;;-2.57;100.00;97122.53;110266;1241;59673;-69
2023/11/30 03:58:37;;;;;;;;;;;;;;;-2.66;100.00;97123.77;110307;1241;59683;-69
2023/11/30 04:01:07;;;;;;;;;;;;;;;-2.75;100.00;97123.30;110143;1241;71994;-69
2023/11/30 04:03:37;;;;;;;;;;;;;;;-2.81;100.00;97124.83;110328;1242;68397;-69
2023/11/30 04:06:07;;;;;;;;;;;;;;;-2.89;100.00;97122.30;110304;1241;68496;-69
2023/11/30 04:08:38;;;;;;;;;;;;;;;-2.96;100.00;97122.11;110225;1241;59718;-69
2023/11/30 04:11:16;;;;;;;;;;;;;;;-3.01;100.00;97125.65;110198;1244;59678;-69
2023/11/30 04:13:46;;;;;;;;;;;;;;;-3.05;100.00;97129.65;110091;1244;71680;-67
2023/11/30 04:16:17;;;;;;;;;;;;;;;-3.08;100.00;97133.98;110397;1241;69273;-68
2023/11/30 04:18:47;;;;;;;;;;;;;;;-3.09;100.00;97122.60;110351;1242;69183;-67
2023/11/30 04:21:20;;;;;;;;;;;;;;;-3.10;100.00;97122.77;110459;1241;59718;-69
2023/11/30 04:23:50;;;;;;;;;;;;;;;-3.11;100.00;97127.58;110327;1241;59638;-69
2023/11/30 04:26:20;;;;;;;;;;;;;;;-3.12;100.00;97130.68;110348;1241;71343;-66
2023/11/30 04:28:49;;;;;;;;;;;;;;;-3.16;100.00;97137.08;110333;1241;69744;-67
2023/11/30 04:31:19;;;;;;;;;;;;;;;-3.19;100.00;97134.25;110113;1244;68536;-67
2023/11/30 04:33:48;;;;;;;;;;;;;;;-3.22;100.00;97135.66;110288;1241;59735;-67
2023/11/30 04:36:18;;;;;;;;;;;;;;;-3.26;100.00;97137.46;110313;1241;59750;-67
2023/11/30 04:38:49;;;;;;;;;;;;;;;-3.32;100.00;97139.30;110316;1241;70798;-67
2023/11/30 04:41:18;;;;;;;;;;;;;;;-3.39;100.00;97139.13;110146;1244;68458;-67
2023/11/30 04:43:50;;;;;;;;;;;;;;;-3.46;100.00;97142.86;110230;1240;68547;-67
2023/11/30 04:46:20;;;;;;;;;;;;;;;-3.54;100.00;97147.62;110344;1240;59687;-69
2023/11/30 04:48:50;;;;;;;;;;;;;;;-3.62;100.00;97153.07;110278;1242;59740;-67
2023/11/30 04:51:20;;;;;;;;;;;;;;;-3.70;100.00;97156.30;110264;1242;70694;-67
2023/11/30 04:53:51;;;;;;;;;;;;;;;-3.78;100.00;97155.43;110344;1241;69293;-67
2023/11/30 04:56:20;;;;;;;;;;;;;;;-3.85;100.00;97155.91;110262;1242;68596;-67
2023/11/30 04:58:50;;;;;;;;;;;;;;;-3.88;100.00;97159.73;110167;1244;59673;-67
2023/11/30 05:01:21;;;;;;;;;;;;;;;-3.91;100.00;97164.04;110246;1242;59668;-68
2023/11/30 05:03:50;;;;;;;;;;;;;;;-3.95;100.00;97160.53;110308;1242;71444;-67
2023/11/30 05:06:21;;;;;;;;;;;;;;;-3.97;100.00;97159.74;110250;1241;69649;-67
2023/11/30 05:08:51;;;;;;;;;;;;;;;-4.02;100.00;97167.14;110290;1241;68645;-67
2023/11/30 05:11:21;;;;;;;;;;;;;;;-4.06;100.00;97165.36;110241;1241;59734;-67
2023/11/30 05:13:50;;;;;;;;;;;;;;;-4.12;100.00;97162.22;110304;1241;59737;-68
2023/11/30 05:16:21;;;;;;;;;;;;;;;-4.17;100.00;97160.10;110289;1241;71388;-68
2023/11/30 05:18:50;;;;;;;;;;;;;;;-4.21;100.00;97153.55;110297;1241;69207;-68
2023/11/30 05:21:20;;;;;;;;;;;;;;;-4.24;100.00;97150.38;110264;1241;68340;-68
2023/11/30 05:23:51;;;;;;;;;;;;;;;-4.28;100.00;97143.80;110319;1244;59740;-68
2023/11/30 05:26:20;;;;;;;;;;;;;;;-4.32;100.00;97148.64;110349;1241;59738;-68
2023/11/30 05:28:50;;;;;;;;;;;;;;;-4.37;100.00;97152.80;110311;1240;70706;-67
2023/11/30 05:31:20;;;;;;;;;;;;;;;-4.41;100.00;97160.36;110303;1241;69931;-68
2023/11/30 05:33:50;;;;;;;;;;;;;;;-4.45;100.00;97158.73;110350;1241;69451;-68
2023/11/30 05:36:19;;;;;;;;;;;;;;;-4.47;100.00;97160.15;110318;1241;59740;-68
2023/11/30 05:38:50;;;;;;;;;;;;;;;-4.48;100.00;97159.65;110356;1241;59750;-68
2023/11/30 05:41:20;;;;;;;;;;;;;;;-4.49;100.00;97157.96;110373;1242;71299;-68
2023/11/30 05:43:49;;;;;;;;;;;;;;;-4.50;100.00;97152.52;110309;1242;69115;-68
2023/11/30 05:46:19;;;;;;;;;;;;;;;-4.51;100.00;97149.84;110337;1241;68542;-69
2023/11/30 05:48:48;;;;;;;;;;;;;;;-4.53;100.00;97150.38;110391;1241;59744;-69
2023/11/30 05:51:19;;;;;;;;;;;;;;;-4.54;100.00;97151.09;110413;1247;59684;-67
2023/11/30 05:53:49;;;;;;;;;;;;;;;-4.52;100.00;97151.72;110347;1241;70490;-67
2023/11/30 05:56:20;;;;;;;;;;;;;;;-4.49;100.00;97154.05;110368;1241;69236;-67
2023/11/30 05:58:50;;;;;;;;;;;;;;;-4.47;100.00;97155.20;110363;1242;69496;-66
2023/11/30 06:01:20;;;;;;;;;;;;;;;-4.43;100.00;97166.70;110271;1241;60182;-66
2023/11/30 06:03:50;;;;;;;;;;;;;;;-4.40;100.00;97167.83;110362;1242;59689;-67
2023/11/30 06:06:19;;;;;;;;;;;;;;;-4.36;100.00;97168.45;110318;1241;70471;-66
2023/11/30 06:08:49;;;;;;;;;;;;;;;-4.29;100.00;97170.04;110340;1241;69220;-66
2023/11/30 06:11:19;;;;;;;;;;;;;;;-4.18;100.00;97171.17;110353;1241;69947;-66
2023/11/30 06:13:48;;;;;;;;;;;;;;;-4.11;100.00;97167.64;110084;1244;59668;-66
2023/11/30 06:16:17;;;;;;;;;;;;;;;-4.03;100.00;97169.90;110316;1241;59744;-67
2023/11/30 06:18:46;;;;;;;;;;;;;;;-3.95;100.00;97174.16;110293;1241;71420;-67
2023/11/30 06:21:16;;;;;;;;;;;;;;;-3.83;100.00;97176.48;110322;1241;70058;-67
2023/11/30 06:23:45;;;;;;;;;;;;;;;-3.73;100.00;97169.46;110422;1241;67345;-66
2023/11/30 06:26:15;;;;;;;;;;;;;;;-3.64;100.00;97166.90;110288;1241;59741;-66
2023/11/30 06:28:44;;;;;;;;;;;;;;;-3.55;100.00;97168.08;110387;1241;59687;-67
2023/11/30 06:31:14;;;;;;;;;;;;;;;-3.46;100.00;97170.45;110358;1247;70460;-67
2023/11/30 06:33:43;;;;;;;;;;;;;;;-3.35;100.00;97164.42;110348;1242;67364;-67
2023/11/30 06:36:13;;;;;;;;;;;;;;;-3.22;100.00;97160.05;110335;1248;68583;-67
2023/11/30 06:38:43;;;;;;;;;;;;;;;-3.10;100.00;97149.88;110300;1241;59739;-67
2023/11/30 06:41:13;;;;;;;;;;;;;;;-2.96;100.00;97147.54;110338;1240;59757;-66
2023/11/30 06:43:43;;;;;;;;;;;;;;;-2.84;100.00;97149.13;110373;1241;71999;-67
2023/11/30 06:46:20;;;;;;;;;;;;;;;-2.72;100.00;97150.88;110439;1241;68404;-67
2023/11/30 06:48:50;;;;;;;;;;;;;;;-2.56;100.00;97159.36;110335;1241;69457;-67
2023/11/30 06:51:20;;;;;;;;;;;;;;;-2.33;100.00;97167.98;110321;1241;59740;-67
2023/11/30 06:53:50;;;;;;;;;;;;;;;-1.95;100.00;97172.45;110148;1241;59700;-67
2023/11/30 06:56:19;;;;;;;;;;;;;;;-1.59;100.00;97175.58;110163;1241;71398;-67
2023/11/30 06:58:48;;;;;;;;;;;;;;;-1.16;100.00;97173.13;110362;1241;69324;-68
2023/11/30 07:01:22;;;;;;;;;;;;;;;-0.78;100.00;97174.85;110280;1240;68531;-68
2023/11/30 07:03:52;;;;;;;;;;;;;;;-0.45;100.00;97178.97;110272;1242;59676;-68
2023/11/30 07:06:21;;;;;;;;;;;;;;;-0.23;100.00;97178.39;110235;1240;59741;-68
2023/11/30 07:08:51;;;;;;;;;;;;;;;-0.15;100.00;97172.98;110280;1241;71403;-68
2023/11/30 07:11:20;;;;;;;;;;;;;;;0.04;100.00;97169.08;110310;1241;68434;-68
2023/11/30 07:13:49;;;;;;;;;;;;;;;0.33;100.00;97167.88;110340;1241;69415;-68
2023/11/30 07:16:18;;;;;;;;;;;;;;;0.74;100.00;97168.43;110254;1241;59686;-68
2023/11/30 07:18:47;;;;;;;;;;;;;;;1.06;100.00;97165.15;110271;1242;59681;-68
2023/11/30 07:21:16;;;;;;;;;;;;;;;1.39;99.47;97166.77;110295;1241;71388;-68
2023/11/30 07:23:45;;;;;;;;;;;;;;;1.67;100.00;97165.48;110264;1242;69249;-68
2023/11/30 07:26:14;;;;;;;;;;;;;;;1.83;98.57;97160.70;110262;1241;68367;-68
2023/11/30 07:28:44;;;;;;;;;;;;;;;1.87;92.87;97155.52;110301;1241;59707;-68
2023/11/30 07:31:17;;;;;;;;;;;;;;;1.92;98.77;97156.20;110205;1243;59684;-68
2023/11/30 07:33:46;;;;;;;;;;;;;;;1.77;99.11;97156.45;110345;1240;71376;-68
2023/11/30 07:36:15;;;;;;;;;;;;;;;1.62;98.89;97147.66;110306;1242;69290;-68
2023/11/30 07:38:45;;;;;;;;;;;;;;;1.54;96.71;97143.48;110304;1242;69332;-68
2023/11/30 07:41:14;;;;;;;;;;;;;;;1.70;98.57;97143.02;110354;1242;59759;-68
2023/11/30 07:43:44;;;;;;;;;;;;;;;1.91;90.97;97146.27;110267;1241;59627;-68
2023/11/30 07:46:14;;;;;;;;;;;;;;;2.36;88.24;97143.11;110300;1241;69922;-68
2023/11/30 07:48:43;;;;;;;;;;;;;;;2.91;88.76;97138.72;110431;1241;69809;-68
2023/11/30 07:51:15;;;;;;;;;;;;;;;3.53;90.87;97141.46;110290;1244;69550;-69
2023/11/30 07:53:44;;;;;;;;;;;;;;;3.96;81.03;97140.48;110369;1241;60139;-69
2023/11/30 07:56:13;;;;;;;;;;;;;;;4.57;86.08;97132.86;110294;1240;59693;-69
2023/11/30 07:58:43;;;;;;;;;;;;;;;5.21;84.10;97124.20;110290;1242;69948;-68
2023/11/30 08:01:12;;;;;;;;;;;;;;;5.80;86.53;97119.61;110361;1241;69232;-67
2023/11/30 08:03:42;;;;;;;;;;;;;;;6.05;80.34;97117.45;110311;1242;69290;-68
2023/11/30 08:06:12;;;;;;;;;;;;;;;6.09;72.94;97114.83;110282;1241;59750;-68
2023/11/30 08:08:42;;;;;;;;;;;;;;;6.08;71.36;97113.70;110317;1241;59669;-68
2023/11/30 08:11:14;;;;;;;;;;;;;;;6.11;71.46;97106.40;110306;1241;71306;-67
2023/11/30 08:13:43;;;;;;;;;;;;;;;6.36;72.20;97111.64;110264;1241;68459;-67
2023/11/30 08:16:13;;;;;;;;;;;;;;;6.40;67.15;97114.02;110290;1241;69323;-67
2023/11/30 08:18:42;;;;;;;;;;;;;;;6.56;63.69;97118.41;110370;1241;59753;-67
2023/11/30 08:21:11;;;;;;;;;;;;;;;6.97;65.10;97126.23;110338;1240;59802;-68
2023/11/30 08:23:42;;;;;;;;;;;;;;;7.08;62.64;97124.85;110267;1240;71434;-68
2023/11/30 08:26:11;;;;;;;;;;;;;;;7.44;62.93;97117.19;110303;1241;69342;-69
2023/11/30 08:28:40;;;;;;;;;;;;;;;7.63;62.38;97113.16;110317;1242;69279;-70
2023/11/30 08:31:11;;;;;;;;;;;;;;;7.85;61.83;97109.79;110433;1242;59707;-69
2023/11/30 08:33:39;;;;;;;;;;;;;;;7.85;58.98;97116.92;110334;1241;59629;-68
2023/11/30 08:36:08;;;;;;;;;;;;;;;7.83;57.17;97123.13;110447;1241;71851;-68
2023/11/30 08:38:37;;;;;;;;;;;;;;;7.94;59.14;97127.45;110332;1241;69241;-68
2023/11/30 08:41:06;;;;;;;;;;;;;;;8.09;55.95;97123.99;110421;1242;68501;-68
2023/11/30 08:43:35;;;;;;;;;;;;;;;8.36;54.97;97127.21;110330;1241;59761;-68
2023/11/30 08:46:05;;;;;;;;;;;;;;;8.82;57.21;97120.22;110348;1241;60061;-69
2023/11/30 08:48:35;;;;;;;;;;;;;;;9.27;55.42;97108.45;110330;1241;72024;-68
2023/11/30 08:51:04;;;;;;;;;;;;;;;9.77;55.91;97102.53;110291;1241;68567;-68
2023/11/30 08:53:33;;;;;;;;;;;;;;;9.82;50.85;97095.59;110393;1241;69900;-68
2023/11/30 08:56:03;;;;;;;;;;;;;;;9.15;47.59;97090.34;110281;1241;59729;-68
2023/11/30 08:58:32;;;;;;;;;;;;;;;8.40;48.51;97088.23;110256;1241;59691;-68
2023/11/30 09:01:01;;;;;;;;;;;;;;;8.34;50.75;97090.35;110375;1241;70632;-67
2023/11/30 09:03:30;;;;;;;;;;;;;;;8.44;50.87;97086.39;110276;1243;68366;-67
2023/11/30 09:05:59;;;;;;;;;;;;;;;8.79;51.00;97081.68;110276;1241;67526;-67
2023/11/30 09:08:28;;;;;;;;;;;;;;;9.32;49.72;97082.38;110274;1241;59691;-68
2023/11/30 09:10:57;;;;;;;;;;;;;;;9.31;46.32;97084.53;110260;1241;59687;-68
2023/11/30 09:13:25;;;;;;;;;;;;;;;9.30;47.34;97077.70;110296;1241;69702;-67
2023/11/30 09:15:54;;;;;;;;;;;;;;;9.48;47.27;97060.89;110277;1241;68593;-68
2023/11/30 09:18:24;;;;;;;;;;;;;;;9.13;45.75;97055.78;110265;1242;69871;-68
2023/11/30 09:20:53;;;;;;;;;;;;;;;8.78;46.84;97049.23;110309;1241;59670;-67
2023/11/30 09:23:22;;;;;;;;;;;;;;;8.58;46.86;97046.54;110319;1240;59653;-68
2023/11/30 09:25:51;;;;;;;;;;;;;;;8.67;47.44;97033.52;110309;1241;71403;-68
2023/11/30 09:28:21;;;;;;;;;;;;;;;8.57;47.10;97037.02;110276;1241;69810;-68
2023/11/30 09:30:50;;;;;;;;;;;;;;;8.24;47.77;97034.42;110270;1241;69178;-67
2023/11/30 09:33:18;;;;;;;;;;;;;;;7.76;48.95;97038.95;110378;1242;59740;-68
2023/11/30 09:35:47;;;;;;;;;;;;;;;7.39;49.42;97042.61;110337;1241;59621;-67
2023/11/30 09:38:16;;;;;;;;;;;;;;;7.10;50.14;97038.98;110364;1241;70935;-68
2023/11/30 09:40:45;;;;;;;;;;;;;;;7.25;50.83;97035.73;110305;1242;69244;-68
2023/11/30 09:43:18;;;;;;;;;;;;;;;7.78;51.35;97032.03;110280;1241;68588;-68
2023/11/30 09:45:47;;;;;;;;;;;;;;;8.06;50.89;97029.23;110342;1241;59764;-68
2023/11/30 09:48:16;;;;;;;;;;;;;;;8.27;50.00;97025.71;110285;1241;59637;-67
2023/11/30 09:50:45;;;;;;;;;;;;;;;8.30;49.83;97020.98;110311;1241;71576;-68
2023/11/30 09:53:16;;;;;;;;;;;;;;;8.23;48.89;97020.79;110328;1241;69685;-67
2023/11/30 09:55:46;;;;;;;;;;;;;;;8.44;49.77;97014.16;110267;1240;68519;-68
2023/11/30 09:58:15;;;;;;;;;;;;;;;9.00;49.51;97005.94;110243;1241;59695;-68
2023/11/30 10:00:44;;;;;;;;;;;;;;;9.12;47.45;97000.22;110330;1241;59786;-68
2023/11/30 10:03:13;;;;;;;;;;;;;;;9.00;48.53;96999.04;110286;1241;71889;-68
2023/11/30 10:05:43;;;;;;;;;;;;;;;8.97;48.99;96990.16;110227;1241;69967;-67
2023/11/30 10:08:13;;;;;;;;;;;;;;;8.95;48.80;96981.52;110260;1241;69363;-67
2023/11/30 10:10:41;;;;;;;;;;;;;;;8.88;48.41;96978.20;110342;1242;59754;-67
2023/11/30 10:13:11;;;;;;;;;;;;;;;8.75;48.25;96973.70;110260;1241;59641;-67
2023/11/30 10:15:40;;;;;;;;;;;;;;;8.44;48.00;96975.93;110341;1240;71485;-67
2023/11/30 10:18:11;;;;;;;;;;;;;;;7.86;48.48;96976.46;110321;1241;69174;-67
2023/11/30 10:20:41;;;;;;;;;;;;;;;7.52;49.40;96977.42;110306;1241;68361;-67
2023/11/30 10:23:12;;;;;;;;;;;;;;;7.07;49.55;96967.78;110285;1241;59643;-67
2023/11/30 10:25:40;;;;;;;;;;;;;;;6.57;50.46;96953.02;110281;1241;59694;-67
2023/11/30 10:28:13;;;;;;;;;;;;;;;6.09;51.19;96944.45;110273;1241;71797;-67
2023/11/30 10:30:43;;;;;;;;;;;;;;;5.53;52.72;96938.85;110349;1242;68466;-66
2023/11/30 10:33:13;;;;;;;;;;;;;;;5.23;53.15;96931.48;110283;1242;69298;-66
2023/11/30 10:35:44;;;;;;;;;;;;;;;4.87;53.66;96931.61;110316;1241;59737;-66
2023/11/30 10:38:33;;;;;;;;;;;;;;;4.50;54.70;96933.77;110290;1242;59681;-66
2023/11/30 10:41:10;;;;;;;;;;;;;;;4.09;56.04;96925.13;110308;1241;70642;-66
2023/11/30 10:43:45;;;;;;;;;;;;;;;3.81;56.62;96916.11;110289;1240;69365;-66
2023/11/30 10:46:14;;;;;;;;;;;;;;;3.50;58.10;96910.05;110347;1241;69887;-66
2023/11/30 10:48:44;;;;;;;;;;;;;;;3.43;58.22;96904.71;110294;1241;59737;-67
2023/11/30 10:51:13;;;;;;;;;;;;;;;3.26;58.91;96896.46;110388;1241;59737;-67
2023/11/30 10:54:05;;;;;;;;;;;;;;;3.13;59.71;96897.46;110335;1241;71407;-67
2023/11/30 10:56:35;;;;;;;;;;;;;;;3.02;60.84;96891.30;110028;1240;69158;-66
2023/11/30 10:59:11;;;;;;;;;;;;;;;2.95;61.11;96880.65;109808;1241;702825;-67
2023/11/30 11:01:48;;;;;;;;;;;;;;;2.86;61.26;96892.98;110256;1241;59739;-67
2023/11/30 11:04:17;;;;;;;;;;;;;;;2.78;61.71;96894.95;110288;1241;59798;-66
2023/11/30 11:06:50;;;;;;;;;;;;;;;2.76;62.57;96885.41;110194;1241;71275;-66
2023/11/30 11:09:19;;;;;;;;;;;;;;;2.77;62.17;96885.04;110370;1248;69065;-66
2023/11/30 11:11:49;;;;;;;;;;;;;;;2.72;63.31;96897.15;110388;1241;69847;-66
2023/11/30 11:14:25;;;;;;;;;;;;;;;2.70;63.65;96904.45;110417;1241;59692;-67
2023/11/30 11:17:02;;;;;;;;;;;;;;;2.73;63.30;96904.17;110536;1241;59716;-67
2023/11/30 11:19:38;;;;;;;;;;;;;;;2.70;63.19;96897.25;110811;1240;71293;-67
2023/11/30 11:22:28;;;;;;;;;;;;;;;2.67;63.13;96892.39;110970;1241;69213;-67
2023/11/30 11:25:00;;;;;;;;;;;;;;;2.68;63.46;96899.42;110573;1241;67974;-67
2023/11/30 11:27:30;;;;;;;;;;;;;;;2.68;63.65;96890.80;110546;1239;59734;-66
2023/11/30 11:30:05;;;;;;;;;;;;;;;2.80;63.77;96885.72;110947;1241;59672;-68
2023/11/30 11:32:35;;;;;;;;;;;;;;;3.18;64.02;96872.96;110928;1241;70465;-67
2023/11/30 11:35:05;;;;;;;;;;;;;;;3.59;63.05;96864.91;110589;1241;69727;-67
2023/11/30 11:37:34;;;;;;;;;;;;;;;3.74;61.91;96857.42;110379;1240;68617;-67
2023/11/30 11:40:03;;;;;;;;;;;;;;;3.79;62.24;96857.98;110424;1241;59737;-67
2023/11/30 11:42:32;;;;;;;;;;;;;;;3.85;62.22;96853.86;110221;1244;59688;-67
2023/11/30 11:45:02;;;;;;;;;;;;;;;3.82;61.94;96849.36;110339;1239;71997;-67
2023/11/30 11:47:32;;;;;;;;;;;;;;;3.67;62.04;96838.81;110375;1240;67881;-67
2023/11/30 11:50:03;;;;;;;;;;;;;;;3.51;62.42;96821.92;110349;1241;69880;-66
2023/11/30 11:52:32;;;;;;;;;;;;;;;3.37;62.88;96815.45;110356;1241;59712;-66
2023/11/30 11:55:08;;;;;;;;;;;;;;;3.14;63.14;96805.16;110419;1241;59662;-67
2023/11/30 11:57:38;;;;;;;;;;;;;;;2.90;63.64;96787.80;110406;1241;71272;-66
2023/11/30 12:00:10;;;;;;;;;;;;;;;2.71;64.29;96768.32;110391;1241;69288;-66
2023/11/30 12:02:38;;;;;;;;;;;;;;;2.65;65.40;96761.92;110364;1240;68519;-67
2023/11/30 12:05:08;;;;;;;;;;;;;;;2.65;65.64;96759.98;110353;1242;59747;-66
2023/11/30 12:07:48;;;;;;;;;;;;;;;2.72;65.81;96753.62;110344;1241;59676;-67
2023/11/30 12:10:27;;;;;;;;;;;;;;;2.81;66.12;96754.70;110384;1240;71458;-67
2023/11/30 12:12:57;;;;;;;;;;;;;;;2.88;65.63;96760.38;110309;1240;69832;-67
2023/11/30 12:15:26;;;;;;;;;;;;;;;2.89;65.64;96767.36;110222;1241;68409;-67
2023/11/30 12:17:55;;;;;;;;;;;;;;;3.02;65.65;96777.53;110263;1241;59793;-67
2023/11/30 12:20:24;;;;;;;;;;;;;;;3.22;65.69;96776.63;110277;1241;59662;-66
2023/11/30 12:22:53;;;;;;;;;;;;;;;3.50;65.57;96784.75;110290;1241;71382;-67
2023/11/30 12:25:26;;;;;;;;;;;;;;;3.83;64.61;96780.56;110266;1241;69210;-67
2023/11/30 12:27:56;;;;;;;;;;;;;;;4.32;64.53;96785.35;110292;1241;69937;-67
2023/11/30 12:30:25;;;;;;;;;;;;;;;4.78;63.51;96785.77;110266;1242;59680;-67
2023/11/30 12:32:53;;;;;;;;;;;;;;;5.08;62.18;96786.55;110268;1241;59678;-66
2023/11/30 12:35:24;;;;;;;;;;;;;;;5.18;60.70;96785.25;110316;1241;71608;-67
2023/11/30 12:37:53;;;;;;;;;;;;;;;5.05;60.61;96781.73;110340;1241;68505;-67
2023/11/30 12:40:22;;;;;;;;;;;;;;;4.93;61.04;96777.60;110393;1241;68244;-66
2023/11/30 12:42:50;;;;;;;;;;;;;;;4.80;60.46;96774.39;110400;1241;59740;-69
2023/11/30 12:45:20;;;;;;;;;;;;;;;4.94;59.78;96772.73;110498;1241;59741;-68
2023/11/30 12:47:49;;;;;;;;;;;;;;;4.94;58.47;96773.75;109890;1245;71788;-67
2023/11/30 12:50:19;;;;;;;;;;;;;;;4.92;59.26;96767.50;110354;1239;69676;-67
2023/11/30 12:52:48;;;;;;;;;;;;;;;4.90;58.96;96754.48;110283;1242;69478;-68